アシガバート の空港の天気 - METARとTAF

アシガバート空港 ( UTAA / ASB ) - トルクメニスタン アシガバート
飛行場実況気象(Metar)
観測時間10/18 08:00 TMT (10/18 03:00 UTC)
風向・風速南東 1m/s
視程10km以上
天気現象
少しの雲 雲底高度 7010m
気温8℃
湿度71%
気圧1022hPa
METARUTAA 180300Z 14002KT 9999 FEW230 08/03 Q1022 R88/CLRD70 NOSIG
過去の天気等 Google飛行場航空写真 Wunderground天気予報

過去48時間のMETAR

飛行場予報(TAF)
発表時間: 10/18 03:50 TMT (10/17 22:50 UTC)
予報対象時間: 18日5時 TMT ~ 19日5時 TMT
風向・風速東 6m/s
視程6000m
全天の4割程度の雲 雲底高度 1520m
18日5時 TMT ~ 18日9時 TMT に一時的に
風向・風速不定 1m/s
18日9時 TMT ~ 18日11時 TMT に徐々に
風向・風速北北東 8m/s
TAF UTAA 172250Z 1800/1824 10012KT 6000 SCT050 530009
TEMPO 1800/1804 VRB02KT
BECMG 1804/1806 02016KT